createdAt,value
2022-11-28T00:00:53.546Z,101615.34
2022-11-28T00:01:55.782Z,101617.69
2022-11-28T00:02:58.326Z,101611.47
2022-11-28T00:04:00.990Z,101607.34
2022-11-28T00:05:03.673Z,101613.31
2022-11-28T00:06:08.951Z,101615.69
2022-11-28T00:07:12.195Z,101612.84
2022-11-28T00:08:14.679Z,101611.03
2022-11-28T00:09:19.711Z,101612.84
2022-11-28T00:10:22.635Z,101612.84
2022-11-28T00:11:25.031Z,101606.59
2022-11-28T00:12:28.712Z,101609.38
2022-11-28T00:13:31.490Z,101618.84
2022-11-28T00:14:34.017Z,101609.75
2022-11-28T00:15:36.344Z,101610.00
2022-11-28T00:16:38.861Z,101616.00
2022-11-28T00:17:42.091Z,101611.34
2022-11-28T00:18:44.659Z,101600.66
2022-11-28T00:19:47.005Z,101605.88
2022-11-28T00:20:49.286Z,101597.56
2022-11-28T00:21:51.639Z,101610.91
2022-11-28T00:22:54.742Z,101606.72
2022-11-28T00:23:57.510Z,101607.03
2022-11-28T00:24:59.801Z,101603.66
2022-11-28T00:26:12.245Z,101599.72
2022-11-28T00:27:14.744Z,101600.81
2022-11-28T00:28:19.509Z,101597.63
2022-11-28T00:29:22.190Z,101604.41
2022-11-28T00:30:31.961Z,101594.78
2022-11-28T00:31:37.179Z,101600.81
2022-11-28T00:32:39.492Z,101593.50
2022-11-28T00:33:42.277Z,101601.34
2022-11-28T00:34:44.822Z,101598.25
2022-11-28T00:35:47.182Z,101593.03
2022-11-28T00:36:49.468Z,101594.34
2022-11-28T00:37:51.739Z,101596.72
2022-11-28T00:38:54.337Z,101588.09
2022-11-28T00:39:56.728Z,101595.13
2022-11-28T00:41:04.548Z,101596.72
2022-11-28T00:42:06.787Z,101596.94
2022-11-28T00:43:09.009Z,101595.38
2022-11-28T00:44:11.832Z,101588.31
2022-11-28T00:45:14.502Z,101590.47
2022-11-28T00:46:18.077Z,101591.78
2022-11-28T00:47:20.547Z,101593.59
2022-11-28T00:48:25.784Z,101587.84
2022-11-28T00:49:28.227Z,101590.16
2022-11-28T00:50:30.473Z,101587.03
2022-11-28T00:51:34.068Z,101583.88
2022-11-28T00:52:36.238Z,101590.16
2022-11-28T00:53:42.011Z,101588.31
2022-11-28T00:54:44.371Z,101588.06
2022-11-28T00:55:48.133Z,101587.03
2022-11-28T00:56:50.796Z,101586.25
2022-11-28T00:57:55.387Z,101583.66
2022-11-28T00:58:58.337Z,101582.34
2022-11-28T01:00:00.850Z,101577.41
2022-11-28T01:01:17.855Z,101571.66
2022-11-28T01:02:20.354Z,101572.97
2022-11-28T01:03:22.729Z,101566.00
2022-11-28T01:04:27.922Z,101563.91
2022-11-28T01:05:30.199Z,101564.69
2022-11-28T01:06:35.231Z,101557.91
2022-11-28T01:07:42.502Z,101556.38
2022-11-28T01:08:45.183Z,101552.78
2022-11-28T01:09:47.515Z,101551.75
2022-11-28T01:10:50.163Z,101552.13
2022-11-28T01:11:54.419Z,101553.16
2022-11-28T01:12:56.590Z,101550.78
2022-11-28T01:14:03.197Z,101555.19
2022-11-28T01:15:10.510Z,101545.06
2022-11-28T01:16:13.342Z,101549.28
2022-11-28T01:17:15.581Z,101551.34
2022-11-28T01:18:18.090Z,101553.69
2022-11-28T01:19:20.572Z,101548.25
2022-11-28T01:20:22.907Z,101548.25
2022-11-28T01:21:25.211Z,101540.16
2022-11-28T01:22:27.499Z,101545.63
2022-11-28T01:23:29.849Z,101546.72
2022-11-28T01:24:33.354Z,101532.63
2022-11-28T01:25:35.758Z,101544.31
2022-11-28T01:26:40.348Z,101540.13
2022-11-28T01:27:43.014Z,101530.75
2022-11-28T01:28:47.095Z,101529.47
2022-11-28T01:29:49.401Z,101540.94
2022-11-28T01:30:51.588Z,101542.50
2022-11-28T01:31:53.962Z,101538.94
2022-11-28T01:32:58.789Z,101537.28
2022-11-28T01:34:01.174Z,101543.56
2022-11-28T01:35:04.042Z,101544.31
2022-11-28T01:36:06.899Z,101528.94
2022-11-28T01:37:09.561Z,101538.84
2022-11-28T01:38:11.746Z,101537.00
2022-11-28T01:39:15.857Z,101540.66
2022-11-28T01:40:18.725Z,101536.72
2022-11-28T01:41:23.325Z,101538.03
2022-11-28T01:42:25.472Z,101536.69
2022-11-28T01:43:28.013Z,101537.78
2022-11-28T01:44:30.521Z,101535.63
2022-11-28T01:45:33.920Z,101536.34
2022-11-28T01:46:37.103Z,101539.25
2022-11-28T01:47:40.124Z,101537.63
2022-11-28T01:48:43.493Z,101543.09
2022-11-28T01:49:47.804Z,101534.00
2022-11-28T01:50:51.424Z,101534.03
2022-11-28T01:51:58.577Z,101535.38
2022-11-28T01:53:06.657Z,101530.94
2022-11-28T01:54:08.907Z,101532.25
2022-11-28T01:55:16.267Z,101534.09
2022-11-28T01:56:23.895Z,101539.59
2022-11-28T01:57:27.896Z,101539.06
2022-11-28T01:58:32.888Z,101541.88
2022-11-28T01:59:39.604Z,101530.09
2022-11-28T02:00:42.231Z,101530.81
2022-11-28T02:01:45.975Z,101529.06
2022-11-28T02:02:51.732Z,101526.69
2022-11-28T02:03:54.957Z,101524.84
2022-11-28T02:04:58.458Z,101534.03
2022-11-28T02:06:00.739Z,101527.00
2022-11-28T02:07:03.023Z,101524.38
2022-11-28T02:08:05.975Z,101523.66
2022-11-28T02:09:15.969Z,101530.09
2022-11-28T02:10:34.290Z,101518.81
2022-11-28T02:11:55.951Z,101519.03
2022-11-28T02:13:07.241Z,101519.81
2022-11-28T02:14:39.248Z,101517.75
2022-11-28T02:15:47.773Z,101516.66
2022-11-28T02:17:30.273Z,101520.03
2022-11-28T02:18:55.685Z,101523.75
2022-11-28T02:20:25.122Z,101517.94
2022-11-28T02:21:52.708Z,101528.56
2022-11-28T02:23:14.740Z,101525.72
2022-11-28T02:24:56.070Z,101535.25
2022-11-28T02:26:26.243Z,101532.41
2022-11-28T02:27:47.256Z,101530.28
2022-11-28T02:29:06.437Z,101531.31
2022-11-28T02:30:18.194Z,101537.09
2022-11-28T02:31:34.198Z,101531.81
2022-11-28T02:32:54.649Z,101539.06
2022-11-28T02:34:41.116Z,101537.69
2022-11-28T02:36:00.736Z,101531.66
2022-11-28T02:37:16.290Z,101534.53
2022-11-28T02:38:53.507Z,101530.34
2022-11-28T02:40:16.037Z,101519.06
2022-11-28T02:41:33.402Z,101524.97
2022-11-28T02:42:43.548Z,101522.31
2022-11-28T02:44:19.240Z,101528.25
2022-11-28T02:45:31.996Z,101528.72
2022-11-28T02:46:44.703Z,101521.09
2022-11-28T02:47:57.956Z,101526.47
2022-11-28T02:49:12.189Z,101517.81
2022-11-28T02:50:28.799Z,101521.22
2022-11-28T02:51:52.492Z,101521.69
2022-11-28T02:53:07.582Z,101515.66
2022-11-28T02:54:13.729Z,101518.41
2022-11-28T02:55:17.863Z,101516.81
2022-11-28T02:56:20.221Z,101515.47
2022-11-28T02:57:23.024Z,101517.09
2022-11-28T02:58:26.692Z,101512.34
2022-11-28T02:59:32.312Z,101511.31
2022-11-28T03:00:38.427Z,101509.50
2022-11-28T03:01:42.065Z,101509.00
2022-11-28T03:02:46.120Z,101506.09
2022-11-28T03:04:19.286Z,101512.56
2022-11-28T03:05:30.627Z,101503.66
2022-11-28T03:06:53.032Z,101512.72
2022-11-28T03:08:23.458Z,101515.63
2022-11-28T03:09:45.745Z,101516.13
2022-11-28T03:11:03.563Z,101509.81
2022-11-28T03:12:47.355Z,101517.06
2022-11-28T03:14:23.678Z,101512.66
2022-11-28T03:15:42.520Z,101505.00
2022-11-28T03:17:05.840Z,101507.91
2022-11-28T03:18:27.257Z,101510.72
2022-11-28T03:19:37.325Z,101509.97
2022-11-28T03:21:01.129Z,101509.97
2022-11-28T03:22:30.556Z,101506.50
2022-11-28T03:24:04.906Z,101505.50
2022-11-28T03:25:19.110Z,101498.34
2022-11-28T03:26:52.673Z,101503.59
2022-11-28T03:28:08.246Z,101500.72
2022-11-28T03:29:24.006Z,101497.84
2022-11-28T03:30:32.491Z,101493.66
2022-11-28T03:31:39.718Z,101507.00
2022-11-28T03:32:44.633Z,101500.47
2022-11-28T03:33:57.270Z,101505.97
2022-11-28T03:35:21.898Z,101494.72
2022-11-28T03:36:31.975Z,101497.56
2022-11-28T03:37:39.758Z,101499.66
2022-11-28T03:38:45.479Z,101486.41
2022-11-28T03:39:54.048Z,101494.72
2022-11-28T03:41:02.542Z,101486.38
2022-11-28T03:42:19.261Z,101493.16
2022-11-28T03:43:27.729Z,101488.63
2022-11-28T03:44:40.659Z,101483.53
2022-11-28T03:45:47.345Z,101486.38
2022-11-28T03:46:52.141Z,101486.38
2022-11-28T03:48:01.228Z,101485.84
2022-11-28T03:49:07.771Z,101485.84
2022-11-28T03:50:18.194Z,101488.38
2022-11-28T03:51:36.799Z,101488.44
2022-11-28T03:52:45.018Z,101479.13
2022-11-28T03:53:56.228Z,101480.47
2022-11-28T03:55:10.110Z,101482.06
2022-11-28T03:56:18.748Z,101482.84
2022-11-28T03:57:35.848Z,101475.59
2022-11-28T03:58:49.682Z,101473.06
2022-11-28T03:59:54.085Z,101477.53
2022-11-28T04:01:27.195Z,101480.38
2022-11-28T04:02:31.370Z,101474.47
2022-11-28T04:03:56.882Z,101470.69
2022-11-28T04:05:17.116Z,101470.38
2022-11-28T04:06:44.444Z,101468.31
2022-11-28T04:08:01.838Z,101470.06
2022-11-28T04:09:14.394Z,101467.38
2022-11-28T04:10:37.245Z,101470.56
2022-11-28T04:11:54.371Z,101469.38
2022-11-28T04:13:03.153Z,101468.75
2022-11-28T04:14:26.723Z,101469.97
2022-11-28T04:15:35.105Z,101469.25
2022-11-28T04:16:53.614Z,101467.13
2022-11-28T04:18:18.299Z,101465.78
2022-11-28T04:19:58.555Z,101468.63
2022-11-28T04:21:12.513Z,101468.09
2022-11-28T04:22:21.400Z,101472.50
2022-11-28T04:23:28.876Z,101469.00
2022-11-28T04:24:39.705Z,101471.84
2022-11-28T04:25:48.225Z,101465.56
2022-11-28T04:27:04.701Z,101478.81
2022-11-28T04:28:13.745Z,101477.69
2022-11-28T04:29:21.439Z,101472.72
2022-11-28T04:30:23.744Z,101469.81
2022-11-28T04:31:26.990Z,101473.91
2022-11-28T04:32:32.871Z,101473.69
2022-11-28T04:33:39.316Z,101472.09
2022-11-28T04:34:45.654Z,101474.44
2022-11-28T04:35:51.641Z,101472.88
2022-11-28T04:36:56.565Z,101469.72
2022-11-28T04:37:59.652Z,101482.66
2022-11-28T04:39:03.114Z,101469.88
2022-11-28T04:40:11.965Z,101476.13
2022-11-28T04:41:22.588Z,101474.84
2022-11-28T04:42:32.537Z,101476.88
2022-11-28T04:43:58.687Z,101470.50
2022-11-28T04:45:09.740Z,101468.69
2022-11-28T04:46:35.604Z,101467.81
2022-11-28T04:47:38.548Z,101473.56
2022-11-28T04:48:41.420Z,101473.56
2022-11-28T04:49:44.022Z,101473.22
2022-11-28T04:51:01.574Z,101473.09
2022-11-28T04:52:31.324Z,101471.53
2022-11-28T04:54:01.190Z,101470.41
2022-11-28T04:55:25.498Z,101476.41
2022-11-28T04:56:51.157Z,101468.25
2022-11-28T04:58:04.031Z,101475.06
2022-11-28T04:59:07.625Z,101469.06
2022-11-28T05:00:14.753Z,101472.91
2022-11-28T05:01:25.840Z,101470.88
2022-11-28T05:02:29.333Z,101470.63
2022-11-28T05:03:32.345Z,101470.41
2022-11-28T05:04:38.556Z,101471.44
2022-11-28T05:05:51.566Z,101469.53
2022-11-28T05:07:05.533Z,101468.97
2022-11-28T05:08:07.758Z,101470.22
2022-11-28T05:09:11.603Z,101472.91
2022-11-28T05:10:15.108Z,101468.19
2022-11-28T05:11:17.416Z,101478.56
2022-11-28T05:12:19.782Z,101468.75
2022-11-28T05:13:22.078Z,101471.13
2022-11-28T05:14:24.566Z,101473.72
2022-11-28T05:15:26.806Z,101479.47
2022-11-28T05:16:29.558Z,101472.78
2022-11-28T05:17:31.975Z,101479.31
2022-11-28T05:18:34.221Z,101471.19
2022-11-28T05:19:36.579Z,101477.19
2022-11-28T05:20:39.815Z,101471.75
2022-11-28T05:21:42.838Z,101468.84
2022-11-28T05:22:45.181Z,101466.22
2022-11-28T05:23:47.825Z,101463.31
2022-11-28T05:24:50.119Z,101462.53
2022-11-28T05:25:52.577Z,101472.47
2022-11-28T05:26:54.826Z,101468.03
2022-11-28T05:27:57.074Z,101468.75
2022-11-28T05:29:02.874Z,101466.38
2022-11-28T05:30:06.734Z,101471.81
2022-11-28T05:31:09.126Z,101469.44
2022-11-28T05:32:11.373Z,101464.72
2022-11-28T05:33:13.604Z,101467.78
2022-11-28T05:34:15.856Z,101466.66
2022-11-28T05:35:18.168Z,101459.53
2022-11-28T05:36:21.109Z,101471.72
2022-11-28T05:37:23.456Z,101469.91
2022-11-28T05:38:25.995Z,101471.81
2022-11-28T05:39:28.288Z,101485.28
2022-11-28T05:40:30.510Z,101467.31
2022-11-28T05:41:33.551Z,101476.69
2022-11-28T05:42:36.416Z,101471.94
2022-11-28T05:43:39.048Z,101473.06
2022-11-28T05:44:41.593Z,101466.28
2022-11-28T05:45:45.026Z,101471.25
2022-11-28T05:46:48.032Z,101469.69
2022-11-28T05:47:50.358Z,101471.50
2022-11-28T05:48:52.752Z,101467.88
2022-11-28T05:49:54.980Z,101473.50
2022-11-28T05:50:57.582Z,101471.50
2022-11-28T05:52:00.172Z,101465.50
2022-11-28T05:53:02.329Z,101465.34
2022-11-28T05:54:05.050Z,101467.25
2022-11-28T05:55:07.744Z,101469.53
2022-11-28T05:56:14.059Z,101465.13
2022-11-28T05:57:16.314Z,101461.72
2022-11-28T05:58:20.732Z,101455.97
2022-11-28T05:59:23.075Z,101464.97
2022-11-28T06:00:26.152Z,101468.38
2022-11-28T06:01:29.883Z,101467.50
2022-11-28T06:02:35.350Z,101467.56
2022-11-28T06:03:38.001Z,101465.22
2022-11-28T06:04:44.402Z,101465.66
2022-11-28T06:05:46.846Z,101468.03
2022-11-28T06:06:50.219Z,101463.94
2022-11-28T06:07:52.698Z,101467.81
2022-11-28T06:08:57.593Z,101452.94
2022-11-28T06:09:59.797Z,101463.31
2022-11-28T06:11:02.272Z,101467.72
2022-11-28T06:12:04.583Z,101468.53
2022-11-28T06:13:06.729Z,101465.44
2022-11-28T06:14:10.020Z,101464.53
2022-11-28T06:15:12.306Z,101463.50
2022-11-28T06:16:18.174Z,101461.78
2022-11-28T06:17:20.491Z,101457.66
2022-11-28T06:18:24.035Z,101457.75
2022-11-28T06:19:26.350Z,101459.56
2022-11-28T06:20:28.810Z,101454.13
2022-11-28T06:21:31.574Z,101455.47
2022-11-28T06:22:34.383Z,101456.00
2022-11-28T06:23:37.183Z,101456.81
2022-11-28T06:24:39.471Z,101453.72
2022-11-28T06:25:41.763Z,101457.13
2022-11-28T06:26:43.934Z,101455.63
2022-11-28T06:27:46.470Z,101457.03
2022-11-28T06:28:50.168Z,101459.56
2022-11-28T06:29:52.520Z,101454.66
2022-11-28T06:30:54.809Z,101462.38
2022-11-28T06:31:57.142Z,101462.09
2022-11-28T06:32:59.399Z,101462.97
2022-11-28T06:34:01.866Z,101467.84
2022-11-28T06:35:06.555Z,101467.69
2022-11-28T06:36:10.447Z,101466.25
2022-11-28T06:37:12.784Z,101472.16
2022-11-28T06:38:15.048Z,101466.34
2022-11-28T06:39:18.317Z,101468.44
2022-11-28T06:40:21.036Z,101459.19
2022-11-28T06:41:23.534Z,101468.13
2022-11-28T06:42:25.784Z,101458.16
2022-11-28T06:43:28.659Z,101467.44
2022-11-28T06:44:30.856Z,101470.16
2022-11-28T06:45:34.920Z,101464.72
2022-11-28T06:46:38.235Z,101467.56
2022-11-28T06:47:40.807Z,101464.63
2022-11-28T06:48:43.335Z,101471.59
2022-11-28T06:49:45.761Z,101471.13
2022-11-28T06:50:48.041Z,101478.09
2022-11-28T06:51:50.246Z,101470.16
2022-11-28T06:52:57.120Z,101470.09
2022-11-28T06:54:00.405Z,101473.97
2022-11-28T06:55:02.676Z,101470.81
2022-11-28T06:56:10.939Z,101474.47
2022-11-28T06:57:13.543Z,101467.41
2022-11-28T06:58:16.711Z,101478.13
2022-11-28T06:59:19.361Z,101476.94
2022-11-28T07:00:21.823Z,101470.47
2022-11-28T07:01:25.607Z,101467.13
2022-11-28T07:02:28.219Z,101472.97
2022-11-28T07:03:31.106Z,101465.00
2022-11-28T07:04:34.444Z,101468.09
2022-11-28T07:05:37.098Z,101466.34
2022-11-28T07:06:40.108Z,101466.72
2022-11-28T07:07:53.600Z,101462.38
2022-11-28T07:08:59.084Z,101469.94
2022-11-28T07:10:01.307Z,101468.88
2022-11-28T07:11:14.002Z,101467.78
2022-11-28T07:12:16.327Z,101462.84
2022-11-28T07:13:18.656Z,101460.94
2022-11-28T07:14:20.831Z,101463.38
2022-11-28T07:15:23.714Z,101462.56
2022-11-28T07:16:31.722Z,101460.47
2022-11-28T07:17:35.048Z,101462.50
2022-11-28T07:18:44.428Z,101469.84
2022-11-28T07:19:51.895Z,101466.69
2022-11-28T07:20:57.300Z,101459.72
2022-11-28T07:22:01.848Z,101464.69
2022-11-28T07:23:04.226Z,101467.78
2022-11-28T07:24:07.182Z,101464.69
2022-11-28T07:25:10.974Z,101461.28
2022-11-28T07:26:15.177Z,101467.84
2022-11-28T07:27:17.515Z,101463.78
2022-11-28T07:28:23.354Z,101461.66
2022-11-28T07:29:26.216Z,101465.53
2022-11-28T07:30:28.651Z,101468.22
2022-11-28T07:31:32.675Z,101474.59
2022-11-28T07:32:35.838Z,101463.78
2022-11-28T07:33:39.776Z,101468.75
2022-11-28T07:34:45.510Z,101476.72
2022-11-28T07:35:49.998Z,101474.22
2022-11-28T07:36:52.384Z,101470.16
2022-11-28T07:37:54.735Z,101470.66
2022-11-28T07:38:59.652Z,101470.88
2022-11-28T07:40:02.239Z,101471.44
2022-11-28T07:41:10.160Z,101477.69
2022-11-28T07:42:12.815Z,101477.91
2022-11-28T07:43:15.220Z,101487.94
2022-11-28T07:44:18.265Z,101481.91
2022-11-28T07:45:20.622Z,101483.22
2022-11-28T07:46:24.040Z,101484.22
2022-11-28T07:47:26.702Z,101491.81
2022-11-28T07:48:29.350Z,101490.16
2022-11-28T07:49:32.480Z,101484.72
2022-11-28T07:50:34.654Z,101479.50
2022-11-28T07:51:37.441Z,101484.16
2022-11-28T07:52:39.760Z,101487.00
2022-11-28T07:53:42.844Z,101488.97
2022-11-28T07:54:45.142Z,101489.34
2022-11-28T07:55:47.393Z,101477.31
2022-11-28T07:57:13.023Z,101484.72
2022-11-28T07:58:12.282Z,101482.91
2022-11-28T07:59:14.663Z,101480.03
2022-11-28T08:00:17.706Z,101485.53
2022-11-28T08:01:23.244Z,101481.06
2022-11-28T08:02:27.305Z,101476.88
2022-11-28T08:03:29.730Z,101485.59
2022-11-28T08:04:32.128Z,101489.00
2022-11-28T08:05:34.450Z,101494.09
2022-11-28T08:06:40.059Z,101483.53
2022-11-28T08:07:42.657Z,101493.69
2022-11-28T08:08:47.235Z,101498.47
2022-11-28T08:09:49.519Z,101487.88
2022-11-28T08:10:51.755Z,101485.91
2022-11-28T08:11:54.908Z,101489.06
2022-11-28T08:12:57.175Z,101488.25
2022-11-28T08:14:00.277Z,101484.00
2022-11-28T08:15:02.737Z,101483.31
2022-11-28T08:16:07.230Z,101487.50
2022-11-28T08:17:09.952Z,101487.31
2022-11-28T08:18:13.379Z,101481.34
2022-11-28T08:19:18.121Z,101486.78
2022-11-28T08:20:22.744Z,101490.81
2022-11-28T08:21:28.519Z,101482.09
2022-11-28T08:22:31.489Z,101477.63
2022-11-28T08:23:35.647Z,101487.25
2022-11-28T08:24:37.809Z,101482.75
2022-11-28T08:25:40.047Z,101479.34
2022-11-28T08:26:43.061Z,101483.22
2022-11-28T08:27:48.119Z,101482.00
2022-11-28T08:28:54.595Z,101478.75
2022-11-28T08:29:56.920Z,101478.72
2022-11-28T08:31:02.145Z,101478.78
2022-11-28T08:32:04.627Z,101478.25
2022-11-28T08:33:06.966Z,101468.72
2022-11-28T08:34:11.136Z,101477.25
2022-11-28T08:35:13.423Z,101482.59
2022-11-28T08:36:18.191Z,101480.66
2022-11-28T08:37:20.757Z,101484.22
2022-11-28T08:38:26.211Z,101480.25
2022-11-28T08:39:28.561Z,101477.53
2022-11-28T08:40:30.855Z,101479.09
2022-11-28T08:41:33.091Z,101485.56
2022-11-28T08:42:36.048Z,101478.75
2022-11-28T08:43:38.839Z,101484.75
2022-11-28T08:44:41.088Z,101476.41
2022-11-28T08:45:43.982Z,101482.88
2022-11-28T08:46:46.303Z,101478.94
2022-11-28T08:47:48.517Z,101482.81
2022-11-28T08:48:52.364Z,101482.38
2022-11-28T08:49:54.905Z,101482.13
2022-11-28T08:51:00.280Z,101475.50
2022-11-28T08:52:04.887Z,101482.41
2022-11-28T08:53:08.122Z,101477.69
2022-11-28T08:54:10.626Z,101475.59
2022-11-28T08:55:12.922Z,101483.25
2022-11-28T08:56:15.568Z,101480.66
2022-11-28T08:57:17.805Z,101481.31
2022-11-28T08:58:20.427Z,101477.91
2022-11-28T08:59:23.038Z,101480.31
2022-11-28T09:00:25.905Z,101479.47
2022-11-28T09:01:28.315Z,101478.94
2022-11-28T09:02:33.604Z,101488.19
2022-11-28T09:03:36.813Z,101482.53
2022-11-28T09:04:39.443Z,101480.84
2022-11-28T09:05:42.854Z,101479.75
2022-11-28T09:06:45.180Z,101478.66
2022-11-28T09:07:47.377Z,101472.88
2022-11-28T09:08:51.480Z,101478.00
2022-11-28T09:09:53.992Z,101476.47
2022-11-28T09:10:56.443Z,101477.31
2022-11-28T09:11:58.722Z,101476.38
2022-11-28T09:13:01.063Z,101467.16
2022-11-28T09:14:04.135Z,101472.53
2022-11-28T09:15:07.488Z,101465.94
2022-11-28T09:16:10.377Z,101464.47
2022-11-28T09:17:12.751Z,101468.66
2022-11-28T09:18:16.246Z,101465.41
2022-11-28T09:19:18.613Z,101471.91
2022-11-28T09:20:21.615Z,101464.53
2022-11-28T09:21:24.182Z,101467.16
2022-11-28T09:22:29.551Z,101463.50
2022-11-28T09:23:32.060Z,101460.53
2022-11-28T09:24:34.405Z,101462.31
2022-11-28T09:25:40.337Z,101467.31
2022-11-28T09:26:43.620Z,101462.81
2022-11-28T09:27:45.959Z,101452.13
2022-11-28T09:28:50.147Z,101458.75
2022-11-28T09:29:52.595Z,101460.91
2022-11-28T09:31:06.166Z,101460.41
2022-11-28T09:32:08.791Z,101455.69
2022-11-28T09:33:13.490Z,101454.44
2022-11-28T09:34:16.237Z,101449.66
2022-11-28T09:35:18.862Z,101453.63
2022-11-28T09:36:23.111Z,101457.63
2022-11-28T09:37:25.485Z,101453.91
2022-11-28T09:38:32.243Z,101445.22
2022-11-28T09:40:04.790Z,101456.34
2022-11-28T09:41:19.077Z,101445.66
2022-11-28T09:42:38.318Z,101453.13
2022-11-28T09:43:45.171Z,101449.78
2022-11-28T09:45:12.341Z,101453.22
2022-11-28T09:46:24.936Z,101450.84
2022-11-28T09:47:30.125Z,101447.91
2022-11-28T09:48:41.979Z,101448.59
2022-11-28T09:49:50.676Z,101442.00
2022-11-28T09:51:25.593Z,101437.88
2022-11-28T09:52:34.092Z,101434.44
2022-11-28T09:53:46.210Z,101446.63
2022-11-28T09:55:04.617Z,101439.50
2022-11-28T09:56:15.554Z,101433.34
2022-11-28T09:57:39.513Z,101423.16
2022-11-28T09:59:00.925Z,101427.03
2022-11-28T10:00:04.643Z,101422.09
2022-11-28T10:01:19.807Z,101421.53
2022-11-28T10:03:07.115Z,101416.84
2022-11-28T10:04:32.065Z,101416.41
2022-11-28T10:05:40.967Z,101420.53
2022-11-28T10:07:10.483Z,101414.84
2022-11-28T10:08:15.655Z,101421.25
2022-11-28T10:09:59.887Z,101412.72
2022-11-28T10:11:07.638Z,101413.13
2022-11-28T10:12:20.246Z,101414.56
2022-11-28T10:13:22.452Z,101412.94
2022-11-28T10:14:49.972Z,101405.16
2022-11-28T10:16:10.916Z,101410.19
2022-11-28T10:17:28.042Z,101407.94
2022-11-28T10:18:47.601Z,101411.00
2022-11-28T10:19:56.550Z,101407.13
2022-11-28T10:21:04.619Z,101407.06
2022-11-28T10:22:15.997Z,101414.06
2022-11-28T10:23:34.278Z,101405.72
2022-11-28T10:24:42.792Z,101407.97
2022-11-28T10:25:55.185Z,101412.41
2022-11-28T10:27:05.538Z,101409.19
2022-11-28T10:28:14.816Z,101411.56
2022-11-28T10:29:26.009Z,101399.44
2022-11-28T10:30:36.459Z,101404.69
2022-11-28T10:31:44.216Z,101408.56
2022-11-28T10:33:09.395Z,101403.84
2022-11-28T10:34:30.740Z,101396.69
2022-11-28T10:35:45.055Z,101396.53
2022-11-28T10:37:14.830Z,101396.19
2022-11-28T10:38:19.647Z,101399.56
2022-11-28T10:39:22.160Z,101391.56
2022-11-28T10:40:38.991Z,101378.03
2022-11-28T10:41:44.032Z,101388.09
2022-11-28T10:43:04.044Z,101386.28
2022-11-28T10:44:21.302Z,101387.97
2022-11-28T10:45:53.239Z,101386.72
2022-11-28T10:47:06.242Z,101384.72
2022-11-28T10:48:38.617Z,101387.19
2022-11-28T10:49:44.186Z,101389.00
2022-11-28T10:51:31.496Z,101383.97
2022-11-28T10:53:13.026Z,101391.75
2022-11-28T10:54:41.897Z,101386.41
2022-11-28T10:56:17.270Z,101388.97
2022-11-28T10:57:31.685Z,101383.19
2022-11-28T10:58:55.297Z,101384.66
2022-11-28T11:00:13.504Z,101382.69
2022-11-28T11:01:19.161Z,101376.06
2022-11-28T11:02:45.478Z,101383.75
2022-11-28T11:03:48.990Z,101379.03
2022-11-28T11:04:51.553Z,101379.19
2022-11-28T11:05:54.266Z,101386.13
2022-11-28T11:07:16.185Z,101379.59
2022-11-28T11:08:25.577Z,101384.47
2022-11-28T11:09:28.906Z,101384.47
2022-11-28T11:10:49.832Z,101380.00
2022-11-28T11:12:01.202Z,101386.66
2022-11-28T11:13:15.068Z,101377.56
2022-11-28T11:14:33.867Z,101369.56
2022-11-28T11:15:36.698Z,101374.56
2022-11-28T11:16:59.353Z,101374.19
2022-11-28T11:18:04.842Z,101374.25
2022-11-28T11:19:23.857Z,101367.31
2022-11-28T11:20:39.022Z,101368.66
2022-11-28T11:21:41.520Z,101370.16
2022-11-28T11:22:55.135Z,101373.03
2022-11-28T11:24:17.165Z,101373.19
2022-11-28T11:25:20.603Z,101368.28
2022-11-28T11:26:27.624Z,101370.38
2022-11-28T11:27:31.183Z,101367.38
2022-11-28T11:28:48.036Z,101356.38
2022-11-28T11:29:52.289Z,101370.09
2022-11-28T11:31:03.116Z,101363.50
2022-11-28T11:32:07.482Z,101360.38
2022-11-28T11:33:17.826Z,101369.94
2022-11-28T11:34:24.369Z,101366.69
2022-11-28T11:35:30.995Z,101368.94
2022-11-28T11:36:36.111Z,101354.53
2022-11-28T11:37:39.344Z,101358.69
2022-11-28T11:38:42.362Z,101357.56
2022-11-28T11:39:52.277Z,101357.56
2022-11-28T11:40:54.659Z,101353.25
2022-11-28T11:42:00.043Z,101357.16
2022-11-28T11:43:03.195Z,101361.84
2022-11-28T11:44:14.307Z,101354.13
2022-11-28T11:45:34.520Z,101356.88
2022-11-28T11:47:09.598Z,101357.38
2022-11-28T11:48:12.685Z,101353.56
2022-11-28T11:49:48.722Z,101355.75
2022-11-28T11:50:54.705Z,101349.13
2022-11-28T11:51:59.034Z,101353.22
2022-11-28T11:53:13.380Z,101359.56
2022-11-28T11:54:18.498Z,101349.50
2022-11-28T11:55:20.924Z,101349.88
2022-11-28T11:56:23.275Z,101345.59
2022-11-28T11:57:34.226Z,101351.75
2022-11-28T11:58:44.791Z,101346.13
2022-11-28T11:59:53.943Z,101346.78
2022-11-28T12:00:58.833Z,101342.28
2022-11-28T12:02:11.908Z,101349.88
2022-11-28T12:03:29.825Z,101348.88
2022-11-28T12:04:45.674Z,101345.31
2022-11-28T12:07:36.223Z,101340.47
2022-11-28T12:08:45.343Z,101336.63
2022-11-28T12:09:49.420Z,101342.19
2022-11-28T12:11:16.900Z,101337.00
2022-11-28T12:12:29.918Z,101341.03
2022-11-28T12:13:33.586Z,101340.94
2022-11-28T12:14:38.848Z,101337.44
2022-11-28T12:15:52.531Z,101334.13
2022-11-28T12:19:29.780Z,101337.84
2022-11-28T12:20:50.653Z,101334.94
2022-11-28T12:22:23.229Z,101331.28
2022-11-28T12:23:49.238Z,101326.34
2022-11-28T12:25:29.767Z,101333.38
2022-11-28T12:26:41.387Z,101330.94
2022-11-28T12:27:58.611Z,101330.72
2022-11-28T12:29:25.520Z,101325.56
2022-11-28T12:30:46.449Z,101323.22
2022-11-28T12:32:03.860Z,101322.00
2022-11-28T12:33:17.921Z,101323.31
2022-11-28T12:34:31.067Z,101321.31
2022-11-28T12:35:33.377Z,101318.13
2022-11-28T12:36:47.919Z,101323.13
2022-11-28T12:38:11.310Z,101326.28
2022-11-28T12:39:21.194Z,101322.88
2022-11-28T12:40:26.487Z,101324.78
2022-11-28T12:41:41.110Z,101323.28
2022-11-28T12:42:46.420Z,101314.09
2022-11-28T12:44:09.782Z,101307.88
2022-11-28T12:45:28.743Z,101320.03
2022-11-28T12:46:40.361Z,101311.16
2022-11-28T12:48:00.056Z,101312.81
2022-11-28T12:49:50.025Z,101318.84
2022-11-28T12:51:34.248Z,101320.41
2022-11-28T12:52:49.261Z,101319.78
2022-11-28T12:54:13.156Z,101321.13
2022-11-28T12:55:50.331Z,101316.00
2022-11-28T12:57:04.149Z,101312.84
2022-11-28T12:58:24.668Z,101311.50
2022-11-28T12:59:40.272Z,101314.13
2022-11-28T13:00:55.670Z,101312.03
2022-11-28T13:02:22.728Z,101301.88
2022-11-28T13:03:31.591Z,101319.78
2022-11-28T13:04:46.746Z,101315.88
2022-11-28T13:05:52.908Z,101311.78
2022-11-28T13:07:13.793Z,101316.34
2022-11-28T13:08:28.632Z,101313.75
2022-11-28T13:09:55.383Z,101311.38